Time;durP1;ratioP1;P1;durP2;ratioP2;P2;SDS_P1;SDS_P2;PMS_P1;PMS_P2;Temp;Humidity;BMP_temperature;BMP_pressure;BME280_temperature;BME280_humidity;BME280_pressure;Samples;Min_cycle;Max_cycle;Signal;HPM_P1;HPM_P2
2021/06/01 00:01:45;;;;;;;15.48;10.95;;;14.40;92.60;;;;;;5055854;28;20037;-70
2021/06/01 00:04:11;;;;;;;16.30;9.70;;;14.50;92.60;;;;;;5055745;28;20469;-70
2021/06/01 00:06:38;;;;;;;15.60;10.50;;;14.50;92.40;;;;;;5037627;28;20469;-70
2021/06/01 00:09:07;;;;;;;17.00;10.15;;;14.50;92.50;;;;;;5054846;28;20090;-71
2021/06/01 00:11:33;;;;;;;15.75;10.52;;;14.50;92.50;;;;;;5037544;28;20033;-70
2021/06/01 00:13:59;;;;;;;15.50;9.82;;;14.50;92.70;;;;;;5037914;28;20045;-70
2021/06/01 00:16:25;;;;;;;16.83;11.10;;;14.50;92.40;;;;;;5055735;28;20045;-70
2021/06/01 00:18:51;;;;;;;16.15;10.55;;;14.40;92.60;;;;;;5055158;28;20523;-70
2021/06/01 00:21:17;;;;;;;14.35;9.30;;;14.30;92.70;;;;;;5055014;28;20037;-70
2021/06/01 00:23:43;;;;;;;13.68;9.50;;;14.40;92.70;;;;;;5054882;28;20508;-70
2021/06/01 00:26:11;;;;;;;14.27;10.30;;;14.30;92.90;;;;;;5037271;28;20036;-70
2021/06/01 00:28:39;;;;;;;17.45;11.13;;;14.30;92.90;;;;;;5036950;28;20394;-70
2021/06/01 00:31:06;;;;;;;14.70;10.27;;;14.20;92.90;;;;;;5054670;28;20041;-70
2021/06/01 00:33:32;;;;;;;16.25;10.57;;;14.10;93.10;;;;;;5054973;28;20539;-70
2021/06/01 00:35:58;;;;;;;14.50;9.10;;;14.20;93.10;;;;;;5036877;28;20037;-70
2021/06/01 00:38:24;;;;;;;13.95;10.07;;;14.20;93.20;;;;;;5054521;28;20033;-70
2021/06/01 00:40:50;;;;;;;17.88;10.70;;;14.10;93.30;;;;;;5054203;28;20044;-70
2021/06/01 00:43:16;;;;;;;15.68;10.55;;;14.10;93.30;;;;;;5054470;28;20493;-70
2021/06/01 00:45:42;;;;;;;14.07;10.00;;;14.10;93.40;;;;;;5054377;28;20090;-70
2021/06/01 00:48:08;;;;;;;15.27;9.18;;;14.10;93.30;;;;;;5054669;28;20385;-70
2021/06/01 00:50:34;;;;;;;21.08;9.95;;;14.10;93.40;;;;;;5054061;28;20095;-70
2021/06/01 00:53:00;;;;;;;14.27;9.50;;;14.10;93.40;;;;;;5053536;28;20043;-70
2021/06/01 00:55:27;;;;;;;15.85;10.82;;;14.00;93.40;;;;;;5054178;28;20512;-70
2021/06/01 00:57:53;;;;;;;13.25;9.60;;;14.00;93.50;;;;;;5054295;28;20087;-70
2021/06/01 01:02:53;;;;;;;18.45;11.07;;;14.00;93.50;;;;;;5054398;28;20409;-70
2021/06/01 01:05:20;;;;;;;13.43;9.88;;;14.00;93.50;;;;;;5054477;28;20082;-70
2021/06/01 01:08:03;;;;;;;16.80;10.45;;;13.90;93.40;;;;;;5054015;28;20060;-70
2021/06/01 01:10:29;;;;;;;14.98;9.43;;;13.90;93.60;;;;;;5053943;28;20067;-70
2021/06/01 01:13:01;;;;;;;17.08;10.68;;;13.90;93.70;;;;;;5054110;28;20539;-70
2021/06/01 01:15:29;;;;;;;16.25;9.23;;;13.90;93.70;;;;;;5054158;28;20041;-70
2021/06/01 01:17:58;;;;;;;13.25;9.23;;;13.80;93.70;;;;;;5036047;28;20480;-70
2021/06/01 01:20:44;;;;;;;16.55;9.60;;;13.80;93.90;;;;;;5054049;28;20449;-70
2021/06/01 01:23:19;;;;;;;13.70;9.93;;;13.70;94.30;;;;;;5035993;28;20033;-70
2021/06/01 01:26:17;;;;;;;14.98;9.10;;;13.70;94.30;;;;;;5036620;28;20118;-70
2021/06/01 01:29:05;;;;;;;15.88;10.32;;;13.70;94.40;;;;;;5035999;28;20068;-70
2021/06/01 01:31:39;;;;;;;14.75;10.35;;;13.60;94.40;;;;;;5053630;28;20041;-70
2021/06/01 01:34:08;;;;;;;12.32;8.73;;;13.60;94.60;;;;;;5054258;28;20093;-70
2021/06/01 01:36:36;;;;;;;14.15;10.48;;;13.50;94.60;;;;;;5035862;28;20045;-70
2021/06/01 01:39:04;;;;;;;16.50;10.10;;;13.50;94.70;;;;;;5053227;28;20041;-70
2021/06/01 01:41:33;;;;;;;15.02;9.68;;;13.40;94.70;;;;;;5053796;28;20037;-70
2021/06/01 01:44:00;;;;;;;14.07;9.80;;;13.40;94.90;;;;;;5035795;28;20124;-70
2021/06/01 01:46:37;;;;;;;13.30;9.70;;;13.40;94.90;;;;;;5053528;28;20481;-70
2021/06/01 01:49:04;;;;;;;16.00;9.88;;;13.40;95.00;;;;;;5053591;28;20037;-70
2021/06/01 01:51:33;;;;;;;12.73;9.27;;;13.30;95.10;;;;;;5053752;28;20519;-70
2021/06/01 01:54:02;;;;;;;13.90;10.02;;;13.30;95.20;;;;;;5053902;28;20115;-70
2021/06/01 01:56:32;;;;;;;12.32;8.85;;;13.30;95.30;;;;;;5053222;28;20071;-70
2021/06/01 01:58:58;;;;;;;12.98;9.45;;;13.30;95.20;;;;;;5053004;28;20045;-70
2021/06/01 02:01:25;;;;;;;18.17;10.30;;;13.20;95.20;;;;;;5053429;28;20108;-70
2021/06/01 02:03:52;;;;;;;16.55;10.43;;;13.20;95.30;;;;;;5053431;28;20041;-70
2021/06/01 02:06:18;;;;;;;15.90;10.63;;;13.20;95.30;;;;;;5053555;28;20041;-70
2021/06/01 02:08:44;;;;;;;15.77;10.00;;;13.10;95.40;;;;;;5053437;28;20048;-70
2021/06/01 02:11:10;;;;;;;13.90;9.85;;;13.10;95.60;;;;;;5053558;28;20086;-70
2021/06/01 02:13:47;;;;;;;15.93;10.18;;;13.00;95.90;;;;;;5052995;28;20114;-70
2021/06/01 02:16:13;;;;;;;15.85;10.68;;;13.00;96.30;;;;;;5035381;28;20040;-70
2021/06/01 02:18:38;;;;;;;17.30;10.65;;;13.00;96.30;;;;;;5052652;28;20124;-70
2021/06/01 02:21:20;;;;;;;17.60;9.75;;;13.00;96.30;;;;;;5052956;28;20550;-70
2021/06/01 02:23:56;;;;;;;15.98;10.68;;;12.90;96.30;;;;;;5035459;28;20037;-70
2021/06/01 02:26:50;;;;;;;14.68;9.30;;;12.80;96.50;;;;;;5053578;28;20041;-70
2021/06/01 02:29:28;;;;;;;18.45;10.68;;;12.80;96.60;;;;;;5052913;28;20437;-70
2021/06/01 02:31:55;;;;;;;15.32;10.02;;;12.70;96.50;;;;;;5053007;28;20039;-70
2021/06/01 02:34:23;;;;;;;13.13;10.05;;;12.70;96.70;;;;;;5053043;28;20069;-70
2021/06/01 02:36:52;;;;;;;15.73;9.90;;;12.70;96.90;;;;;;5052906;28;20087;-70
2021/06/01 02:39:20;;;;;;;13.00;9.90;;;12.70;97.10;;;;;;5052489;28;20049;-70
2021/06/01 02:41:48;;;;;;;14.45;10.25;;;12.70;96.90;;;;;;5052846;28;20041;-70
2021/06/01 02:44:14;;;;;;;14.05;9.88;;;12.70;96.90;;;;;;5035648;28;20037;-70
2021/06/01 02:46:41;;;;;;;14.13;10.63;;;12.70;97.00;;;;;;5052730;28;20045;-70
2021/06/01 02:49:08;;;;;;;15.38;9.95;;;12.70;96.90;;;;;;5052486;28;20094;-70
2021/06/01 02:51:36;;;;;;;14.32;10.65;;;12.70;96.80;;;;;;5052924;28;20471;-70
2021/06/01 02:54:04;;;;;;;15.38;10.35;;;12.70;96.80;;;;;;5052691;28;20432;-70
2021/06/01 02:56:31;;;;;;;17.27;10.77;;;12.70;96.80;;;;;;5035556;28;20087;-70
2021/06/01 02:58:58;;;;;;;16.63;11.23;;;12.60;96.90;;;;;;5052694;28;20082;-70
2021/06/01 03:01:25;;;;;;;15.15;9.85;;;12.60;96.90;;;;;;5053040;28;20069;-70
2021/06/01 03:03:53;;;;;;;13.98;10.25;;;12.60;96.90;;;;;;5052854;28;20037;-70
2021/06/01 03:06:21;;;;;;;14.30;9.50;;;12.60;96.90;;;;;;5052598;28;20123;-70
2021/06/01 03:08:47;;;;;;;15.00;10.20;;;12.60;97.00;;;;;;5052796;28;20488;-70
2021/06/01 03:11:16;;;;;;;15.60;11.70;;;12.60;97.00;;;;;;5052409;28;20043;-70
2021/06/01 03:13:43;;;;;;;16.10;11.18;;;12.50;97.10;;;;;;5052763;28;20064;-70
2021/06/01 03:16:09;;;;;;;19.38;12.02;;;12.50;97.10;;;;;;5052881;28;20048;-70
2021/06/01 03:18:35;;;;;;;15.07;11.10;;;12.50;97.10;;;;;;5056002;28;20418;-70
2021/06/01 03:21:02;;;;;;;17.05;11.82;;;12.50;97.10;;;;;;5056497;28;20093;-70
2021/06/01 03:23:30;;;;;;;17.67;11.32;;;12.60;97.20;;;;;;5056207;28;20124;-70
2021/06/01 03:25:56;;;;;;;15.95;11.13;;;12.60;97.20;;;;;;5056100;28;20132;-70
2021/06/01 03:28:22;;;;;;;18.77;11.98;;;12.60;97.20;;;;;;5055852;28;20131;-70
2021/06/01 03:30:50;;;;;;;23.50;12.52;;;12.60;97.20;;;;;;5055779;28;20033;-70
2021/06/01 03:33:17;;;;;;;15.43;10.93;;;12.60;97.30;;;;;;5038394;28;20032;-70
2021/06/01 03:35:43;;;;;;;17.52;12.10;;;12.60;97.20;;;;;;5056426;28;20091;-70
2021/06/01 03:38:09;;;;;;;18.63;11.43;;;12.60;97.20;;;;;;5055659;28;20040;-70
2021/06/01 03:40:36;;;;;;;21.90;12.80;;;12.60;97.10;;;;;;5037444;28;20489;-70
2021/06/01 03:43:02;;;;;;;19.08;11.73;;;12.60;97.20;;;;;;5055749;28;20033;-70
2021/06/01 03:45:28;;;;;;;19.33;12.32;;;12.60;97.30;;;;;;5055668;28;20033;-70
2021/06/01 03:47:53;;;;;;;18.08;11.85;;;12.60;97.30;;;;;;5055559;28;20037;-70
2021/06/01 03:50:20;;;;;;;17.38;11.40;;;12.60;97.30;;;;;;5055598;28;20462;-70
2021/06/01 03:52:47;;;;;;;15.82;11.32;;;12.60;97.50;;;;;;5055499;28;20072;-70
2021/06/01 03:55:14;;;;;;;16.05;11.35;;;12.60;97.60;;;;;;5055438;28;20037;-70
2021/06/01 03:57:40;;;;;;;17.35;12.23;;;12.60;97.50;;;;;;5055391;28;20039;-70
2021/06/01 04:00:09;;;;;;;18.38;12.73;;;12.60;97.60;;;;;;5037279;28;20041;-70
2021/06/01 04:02:35;;;;;;;16.20;12.32;;;12.60;97.60;;;;;;5055767;28;20120;-70
2021/06/01 04:05:01;;;;;;;18.50;11.57;;;12.70;97.60;;;;;;5055763;28;20068;-70
2021/06/01 04:07:27;;;;;;;17.38;12.30;;;12.70;97.60;;;;;;5055643;28;20124;-70
2021/06/01 04:09:52;;;;;;;19.83;12.80;;;12.70;97.60;;;;;;5054837;28;20041;-70
2021/06/01 04:12:18;;;;;;;20.83;13.25;;;12.70;97.70;;;;;;5055090;28;20083;-70
2021/06/01 04:14:44;;;;;;;18.63;13.25;;;12.80;97.70;;;;;;5055221;28;20067;-70
2021/06/01 04:17:09;;;;;;;19.42;13.30;;;12.80;97.50;;;;;;5055005;28;20041;-70
2021/06/01 04:19:35;;;;;;;18.02;13.25;;;12.80;97.60;;;;;;5036872;28;20048;-70
2021/06/01 04:22:01;;;;;;;22.88;14.65;;;12.90;97.40;;;;;;5055072;28;20040;-70
2021/06/01 04:24:28;;;;;;;20.27;13.50;;;12.90;97.40;;;;;;5037737;28;20040;-70
2021/06/01 04:26:59;;;;;;;18.48;14.00;;;12.90;97.40;;;;;;5054814;28;20037;-70
2021/06/01 04:29:26;;;;;;;23.05;13.50;;;13.00;97.40;;;;;;5053621;28;20052;-70
2021/06/01 04:31:52;;;;;;;20.48;14.05;;;13.00;97.30;;;;;;5037044;28;20041;-69
2021/06/01 04:34:18;;;;;;;20.67;13.00;;;13.10;97.30;;;;;;5054659;28;20505;-70
2021/06/01 04:36:43;;;;;;;17.00;12.93;;;13.10;97.20;;;;;;5054516;28;20044;-70
2021/06/01 04:39:10;;;;;;;24.08;13.82;;;13.20;97.20;;;;;;5054278;28;20047;-70
2021/06/01 04:41:37;;;;;;;22.05;13.77;;;13.30;97.20;;;;;;5054529;28;20052;-70
2021/06/01 04:44:04;;;;;;;21.85;14.13;;;13.40;97.00;;;;;;5054977;28;20086;-70
2021/06/01 04:46:30;;;;;;;18.55;13.52;;;13.60;96.80;;;;;;5037084;28;20129;-70
2021/06/01 04:48:55;;;;;;;19.95;13.30;;;13.70;96.60;;;;;;5054208;28;20556;-70
2021/06/01 04:51:21;;;;;;;17.52;12.65;;;13.90;96.40;;;;;;5054421;28;20111;-70
2021/06/01 04:53:48;;;;;;;19.77;14.20;;;14.10;96.00;;;;;;5054467;28;20037;-70
2021/06/01 04:56:14;;;;;;;20.35;13.52;;;14.30;95.80;;;;;;5054525;28;20037;-70
2021/06/01 04:58:40;;;;;;;22.83;14.07;;;14.40;95.40;;;;;;5054315;28;20045;-70
2021/06/01 05:01:06;;;;;;;21.85;12.80;;;14.70;95.00;;;;;;5054542;28;20045;-70
2021/06/01 05:03:32;;;;;;;18.05;12.80;;;14.90;94.70;;;;;;5054653;28;20036;-70
2021/06/01 05:05:58;;;;;;;19.15;13.07;;;15.20;94.30;;;;;;5054697;28;20033;-70
2021/06/01 05:08:24;;;;;;;20.92;13.63;;;15.50;93.90;;;;;;5054104;28;20050;-71
2021/06/01 05:10:51;;;;;;;17.65;12.68;;;15.70;93.20;;;;;;5053632;28;20087;-71
2021/06/01 05:13:16;;;;;;;23.02;13.30;;;16.00;92.80;;;;;;5053897;28;20090;-71
2021/06/01 05:15:44;;;;;;;17.08;12.27;;;16.20;92.50;;;;;;5054394;28;20041;-71
2021/06/01 05:18:11;;;;;;;21.00;12.68;;;16.50;91.90;;;;;;5053667;28;20036;-71
2021/06/01 05:20:37;;;;;;;17.05;11.73;;;16.70;91.20;;;;;;5053241;28;20044;-71
2021/06/01 05:23:02;;;;;;;21.45;13.30;;;16.90;90.70;;;;;;5053836;28;20115;-71
2021/06/01 05:25:28;;;;;;;15.98;11.95;;;17.00;90.60;;;;;;5053983;28;20037;-71
2021/06/01 05:27:54;;;;;;;16.77;12.93;;;17.40;90.30;;;;;;5054050;28;20044;-70
2021/06/01 05:30:29;;;;;;;16.00;11.93;;;17.70;89.10;;;;;;5053263;28;20037;-71
2021/06/01 05:35:28;;;;;;;20.38;12.80;;;18.00;87.40;;;;;;5053524;28;20082;-71
2021/06/01 05:37:53;;;;;;;20.17;11.90;;;18.00;86.00;;;;;;5052962;28;20072;-71
2021/06/01 05:40:20;;;;;;;19.13;11.10;;;18.30;85.00;;;;;;5051951;28;20083;-71
2021/06/01 05:42:45;;;;;;;21.13;11.30;;;18.50;84.40;;;;;;5053854;28;20041;-71
2021/06/01 05:45:12;;;;;;;16.17;10.63;;;18.70;83.30;;;;;;5053888;28;20038;-71
2021/06/01 05:47:38;;;;;;;17.52;11.00;;;19.00;82.40;;;;;;5053261;28;20041;-71
2021/06/01 05:50:04;;;;;;;16.58;10.93;;;19.10;81.40;;;;;;5052962;28;20082;-71
2021/06/01 05:52:35;;;;;;;17.48;10.57;;;19.20;80.40;;;;;;5053450;28;20033;-71
2021/06/01 05:55:02;;;;;;;14.57;11.07;;;19.30;80.00;;;;;;5053244;28;20033;-71
2021/06/01 05:57:28;;;;;;;16.83;12.10;;;19.50;79.00;;;;;;5053711;28;20064;-71
2021/06/01 05:59:53;;;;;;;16.65;10.65;;;19.60;78.70;;;;;;5052791;28;20069;-71
2021/06/01 06:02:19;;;;;;;16.13;10.65;;;19.70;78.20;;;;;;5053185;28;20044;-71
2021/06/01 06:04:45;;;;;;;16.65;10.18;;;19.90;78.30;;;;;;5053746;28;20041;-71
2021/06/01 06:07:11;;;;;;;15.98;10.02;;;20.20;77.80;;;;;;5053154;28;20037;-71
2021/06/01 06:09:36;;;;;;;14.77;10.60;;;20.20;77.10;;;;;;5052990;28;20508;-71
2021/06/01 06:12:02;;;;;;;15.55;11.10;;;20.30;76.20;;;;;;5053110;28;20049;-71
2021/06/01 06:14:28;;;;;;;14.43;10.75;;;20.10;75.60;;;;;;5053750;28;20087;-71
2021/06/01 06:17:02;;;;;;;14.40;9.35;;;20.40;75.40;;;;;;5053040;28;20060;-71
2021/06/01 06:19:28;;;;;;;13.23;10.18;;;20.70;74.80;;;;;;5052674;28;20037;-71
2021/06/01 06:21:54;;;;;;;12.40;10.30;;;20.90;74.10;;;;;;5052982;28;20044;-71
2021/06/01 06:24:20;;;;;;;14.77;10.05;;;20.90;73.30;;;;;;5053044;28;20033;-71
2021/06/01 06:26:45;;;;;;;13.68;9.68;;;20.90;73.70;;;;;;5053594;28;20084;-71
2021/06/01 06:29:11;;;;;;;17.67;10.45;;;21.10;73.20;;;;;;5053029;28;20037;-72
2021/06/01 06:31:38;;;;;;;20.85;9.45;;;21.30;72.00;;;;;;5052829;28;20052;-72
2021/06/01 06:34:04;;;;;;;15.00;9.32;;;21.50;72.90;;;;;;5052723;28;20037;-71
2021/06/01 06:36:30;;;;;;;12.82;9.00;;;21.60;71.30;;;;;;5052877;28;20037;-71
2021/06/01 06:38:57;;;;;;;13.55;8.98;;;21.90;71.10;;;;;;5052430;28;20036;-71
2021/06/01 06:41:24;;;;;;;14.10;9.32;;;22.00;70.70;;;;;;5052736;28;20045;-70
2021/06/01 06:43:53;;;;;;;15.82;9.32;;;22.20;69.80;;;;;;5053425;28;20075;-71
2021/06/01 06:46:26;;;;;;;15.32;9.77;;;22.20;69.00;;;;;;5053224;28;20059;-71
2021/06/01 06:48:53;;;;;;;15.70;9.57;;;22.20;69.10;;;;;;5052813;28;20115;-72
2021/06/01 06:51:19;;;;;;;14.60;10.10;;;22.30;68.50;;;;;;5053285;28;20045;-71
2021/06/01 06:56:15;;;;;;;10.10;6.97;;;22.40;67.20;;;;;;5057290;28;20056;-72
2021/06/01 06:58:41;;;;;;;12.77;7.35;;;22.70;65.70;;;;;;5038473;28;20056;-72
2021/06/01 07:01:11;;;;;;;15.70;7.25;;;22.70;63.50;;;;;;5056522;28;20409;-72
2021/06/01 07:03:37;;;;;;;11.15;7.40;;;22.90;63.20;;;;;;5056692;28;20457;-72
2021/06/01 07:06:03;;;;;;;11.63;7.88;;;23.00;63.00;;;;;;5056693;28;20037;-71
2021/06/01 07:08:30;;;;;;;13.07;8.18;;;23.10;62.00;;;;;;5056013;28;20090;-72
2021/06/01 07:11:09;;;;;;;13.23;7.72;;;23.20;62.20;;;;;;5056273;28;20043;-72
2021/06/01 07:13:44;;;;;;;16.23;8.13;;;23.30;61.80;;;;;;5056292;28;20043;-72
2021/06/01 07:16:11;;;;;;;11.50;7.78;;;23.30;62.10;;;;;;5056323;28;20431;-72
2021/06/01 07:18:39;;;;;;;21.48;9.15;;;23.40;61.40;;;;;;5056321;28;20037;-72
2021/06/01 07:21:11;;;;;;;17.45;9.13;;;23.60;61.90;;;;;;5056004;28;20483;-71
2021/06/01 07:23:48;;;;;;;;;;;23.60;61.50;;;;;;5056842;28;20063;-72
2021/06/01 07:26:14;;;;;;;8.80;5.75;;;23.70;58.80;;;;;;5056220;28;20361;-72
2021/06/01 07:29:00;;;;;;;9.80;5.88;;;23.80;58.80;;;;;;5040718;28;20045;-72
2021/06/01 07:31:49;;;;;;;9.60;5.20;;;24.00;57.80;;;;;;5041397;28;20053;-72
2021/06/01 07:34:17;;;;;;;9.43;5.68;;;24.00;54.90;;;;;;5055873;28;20459;-72
2021/06/01 07:37:03;;;;;;;5.82;3.45;;;24.30;54.40;;;;;;5041225;28;20049;-72
2021/06/01 07:39:32;;;;;;;6.30;4.53;;;24.40;52.60;;;;;;5038350;28;20041;-72
2021/06/01 07:41:58;;;;;;;9.85;5.68;;;24.40;53.30;;;;;;5055661;28;20041;-72
2021/06/01 07:44:24;;;;;;;7.93;3.70;;;24.50;52.30;;;;;;5055606;28;20044;-72
2021/06/01 07:46:50;;;;;;;7.28;3.45;;;24.60;50.90;;;;;;5055573;28;20072;-72
2021/06/01 07:49:17;;;;;;;4.88;3.70;;;24.50;48.30;;;;;;5055219;28;20072;-72
2021/06/01 07:51:43;;;;;;;7.28;3.78;;;24.70;49.10;;;;;;5055736;28;20043;-72
2021/06/01 07:54:09;;;;;;;7.80;4.20;;;24.80;50.40;;;;;;5037784;28;20447;-72
2021/06/01 07:56:35;;;;;;;6.50;3.88;;;24.70;49.70;;;;;;5055649;28;20045;-72
2021/06/01 07:59:21;;;;;;;7.28;3.80;;;25.00;49.70;;;;;;5040153;28;20041;-72
2021/06/01 08:01:51;;;;;;;7.03;2.72;;;25.30;49.20;;;;;;5055467;28;20120;-72
2021/06/01 08:04:16;;;;;;;6.45;3.63;;;25.10;47.40;;;;;;5055379;28;20040;-72
2021/06/01 08:06:43;;;;;;;7.20;3.20;;;25.20;45.80;;;;;;5055632;28;20488;-72
2021/06/01 08:09:09;;;;;;;6.18;3.10;;;25.30;45.90;;;;;;5054893;28;20106;-72
2021/06/01 08:11:36;;;;;;;5.22;2.30;;;25.50;45.90;;;;;;5054910;28;20059;-72
2021/06/01 08:14:04;;;;;;;3.97;2.65;;;25.50;43.10;;;;;;5055393;28;20142;-72
2021/06/01 08:16:48;;;;;;;4.35;3.00;;;25.50;41.80;;;;;;5055292;28;20037;-71
2021/06/01 08:19:39;;;;;;;5.78;2.83;;;25.70;43.50;;;;;;5054711;28;20114;-72
2021/06/01 08:24:30;;;;;;;4.38;2.35;;;25.70;41.10;;;;;;5055133;28;20474;-72
2021/06/01 08:26:57;;;;;;;5.53;2.40;;;25.70;40.70;;;;;;5055176;28;20037;-72
2021/06/01 08:29:23;;;;;;;2.97;2.15;;;25.80;42.00;;;;;;5036520;28;20159;-73
2021/06/01 08:31:49;;;;;;;4.60;2.38;;;26.10;42.30;;;;;;5047338;28;20451;-72
2021/06/01 08:34:15;;;;;;;4.57;2.17;;;26.00;39.50;;;;;;5035475;28;20469;-72
2021/06/01 08:36:41;;;;;;;5.00;2.65;;;25.80;40.40;;;;;;5034894;28;20048;-72
2021/06/01 08:39:08;;;;;;;5.28;2.67;;;25.80;41.10;;;;;;5034311;28;20041;-72
2021/06/01 08:41:36;;;;;;;3.20;2.40;;;26.00;41.40;;;;;;5034989;28;20092;-72
2021/06/01 08:44:03;;;;;;;4.53;3.10;;;25.90;39.80;;;;;;5035065;28;20034;-72
2021/06/01 08:46:31;;;;;;;3.38;2.17;;;25.80;40.60;;;;;;5035199;28;20064;-72
2021/06/01 08:48:57;;;;;;;4.60;2.25;;;25.90;41.50;;;;;;5041785;28;20484;-72
2021/06/01 08:51:25;;;;;;;2.22;1.65;;;26.00;40.00;;;;;;5055162;28;20526;-72
2021/06/01 08:53:52;;;;;;;5.63;2.45;;;26.00;40.60;;;;;;5054585;28;20393;-72
2021/06/01 08:56:18;;;;;;;3.72;2.03;;;26.50;40.80;;;;;;5054320;28;20063;-72
2021/06/01 08:58:49;;;;;;;4.00;2.33;;;26.40;39.20;;;;;;5053871;28;20397;-72
2021/06/01 09:01:20;;;;;;;4.88;2.88;;;26.10;37.50;;;;;;5054000;28;20064;-72
2021/06/01 09:03:59;;;;;;;4.20;2.10;;;26.30;39.80;;;;;;5054141;28;20492;-71
2021/06/01 09:06:33;;;;;;;2.75;1.75;;;26.20;38.10;;;;;;5054589;28;20064;-72
2021/06/01 09:22:05;;;;;;;2.95;2.05;;;26.00;39.10;;;;;;5053311;28;20409;-72
2021/06/01 09:24:31;;;;;;;4.63;3.15;;;25.90;38.90;;;;;;5053711;28;20037;-72
2021/06/01 09:27:16;;;;;;;3.60;2.13;;;25.70;38.30;;;;;;5053094;28;20060;-72
2021/06/01 09:29:49;;;;;;;4.38;2.35;;;25.60;39.00;;;;;;5053417;28;20041;-72
2021/06/01 09:32:16;;;;;;;4.15;2.20;;;25.60;39.30;;;;;;5053634;28;20099;-72
2021/06/01 09:34:47;;;;;;;4.88;2.63;;;25.50;39.20;;;;;;5053979;28;20421;-72
2021/06/01 09:37:19;;;;;;;6.15;2.80;;;25.60;40.20;;;;;;5052428;28;20044;-71
2021/06/01 09:40:00;;;;;;;4.27;2.73;;;25.50;40.50;;;;;;5053494;28;20037;-71
2021/06/01 09:42:29;;;;;;;4.20;2.40;;;25.70;41.20;;;;;;5054106;28;20041;-71
2021/06/01 09:45:21;;;;;;;3.03;2.38;;;25.90;41.90;;;;;;5054103;28;20116;-71
2021/06/01 09:47:50;;;;;;;4.22;2.90;;;25.70;40.30;;;;;;5051963;28;20481;-71
2021/06/01 09:50:26;;;;;;;6.03;2.67;;;25.70;40.40;;;;;;5053028;28;20087;-71
2021/06/01 09:52:55;;;;;;;6.43;2.65;;;25.50;39.10;;;;;;5053967;28;20094;-72
2021/06/01 09:55:41;;;;;;;4.43;2.45;;;25.50;40.70;;;;;;5053998;28;20094;-71
2021/06/01 09:58:10;;;;;;;4.30;2.60;;;25.50;41.00;;;;;;5053391;28;20099;-72
2021/06/01 10:00:39;;;;;;;3.08;2.53;;;25.50;39.90;;;;;;5053143;28;20469;-72
2021/06/01 10:03:12;;;;;;;4.35;2.40;;;25.50;39.90;;;;;;5053743;28;20033;-72
2021/06/01 10:05:39;;;;;;;6.00;2.97;;;25.40;41.80;;;;;;5053774;28;20033;-71
2021/06/01 10:08:18;;;;;;;5.45;2.53;;;25.30;39.90;;;;;;5053177;28;20520;-72
2021/06/01 10:10:57;;;;;;;4.47;2.55;;;25.40;40.20;;;;;;5052886;28;20401;-71
2021/06/01 10:13:29;;;;;;;9.80;2.58;;;25.20;41.20;;;;;;5048549;28;20049;-72
2021/06/01 10:15:57;;;;;;;4.57;2.35;;;25.20;40.30;;;;;;5033334;28;20037;-72
2021/06/01 10:18:29;;;;;;;4.25;2.50;;;25.10;40.60;;;;;;5032999;28;20080;-72
2021/06/01 10:20:59;;;;;;;6.00;2.67;;;25.00;41.00;;;;;;5051615;28;20040;-72
2021/06/01 10:23:30;;;;;;;4.03;2.65;;;25.10;40.40;;;;;;5053525;28;20426;-72
2021/06/01 10:25:57;;;;;;;5.35;2.67;;;25.10;40.70;;;;;;5055326;28;20037;-72
2021/06/01 10:28:34;;;;;;;4.10;2.72;;;24.80;40.30;;;;;;5057609;28;20115;-72
2021/06/01 10:31:02;;;;;;;5.70;2.72;;;24.80;41.60;;;;;;5039205;28;20060;-72
2021/06/01 10:33:36;;;;;;;4.43;2.58;;;24.90;43.10;;;;;;5058005;28;20041;-72
2021/06/01 10:50:23;;;;;;;12.90;3.80;;;24.50;42.00;;;;;;5056621;28;20075;-71
2021/06/01 10:53:05;;;;;;;5.63;2.83;;;24.70;41.10;;;;;;5056768;28;20067;-71
2021/06/01 10:55:54;;;;;;;5.25;3.10;;;24.50;44.40;;;;;;5056913;28;20111;-71
2021/06/01 10:58:27;;;;;;;9.07;3.30;;;24.60;42.00;;;;;;5057251;28;20037;-71
2021/06/01 11:04:12;;;;;;;4.22;2.88;;;24.40;41.20;;;;;;5056714;28;20134;-71
2021/06/01 11:09:33;;;;;;;5.57;2.80;;;24.60;42.70;;;;;;5056278;28;20118;-71
2021/06/01 11:12:26;;;;;;;5.45;3.15;;;24.60;42.80;;;;;;5056092;28;20040;-71
2021/06/01 11:14:54;;;;;;;4.10;2.55;;;24.50;43.50;;;;;;5056992;28;20133;-71
2021/06/01 11:17:38;;;;;;;3.17;2.53;;;24.50;42.00;;;;;;5056187;28;20041;-71
2021/06/01 11:20:27;;;;;;;3.22;2.42;;;24.70;42.20;;;;;;5055999;28;20491;-71
2021/06/01 11:33:51;;;;;;;3.55;2.60;;;24.70;43.40;;;;;;5056276;28;20036;-71
2021/06/01 11:36:19;;;;;;;5.50;3.03;;;24.80;42.60;;;;;;5055716;28;20049;-71
2021/06/01 11:38:56;;;;;;;3.58;3.15;;;24.80;41.90;;;;;;5055134;28;20060;-71
2021/06/01 11:44:19;;;;;;;4.40;2.80;;;24.70;42.00;;;;;;5056234;28;20048;-70
2021/06/01 11:46:53;;;;;;;6.30;3.40;;;24.20;43.20;;;;;;5055579;28;20056;-72
2021/06/01 11:52:04;;;;;;;5.97;3.58;;;24.50;44.10;;;;;;5056180;28;20444;-73
2021/06/01 11:54:30;;;;;;;5.50;3.78;;;24.40;43.60;;;;;;5055601;28;20048;-73
2021/06/01 12:02:28;;;;;;;4.63;3.67;;;24.50;43.10;;;;;;5055371;28;20076;-73
2021/06/01 12:19:12;;;;;;;5.75;3.25;;;24.40;45.80;;;;;;5055139;28;20116;-73
2021/06/01 12:21:49;;;;;;;4.57;3.55;;;24.50;44.50;;;;;;5055315;28;20436;-73
2021/06/01 12:24:23;;;;;;;4.18;2.83;;;24.50;43.70;;;;;;5054900;28;20103;-74
2021/06/01 12:32:22;;;;;;;6.55;4.13;;;24.60;43.60;;;;;;5054990;28;20045;-73
2021/06/01 13:20:45;;;;;;;11.15;4.93;;;25.20;44.60;;;;;;5110709;28;20039;-72
2021/06/01 13:39:45;;;;;;;7.88;3.58;;;25.40;45.40;;;;;;5110684;28;20046;-72
2021/06/01 13:51:42;;;;;;;7.25;4.10;;;25.40;44.30;;;;;;4985545;28;20424;-72
2021/06/01 13:57:41;;;;;;;4.55;3.30;;;25.30;45.90;;;;;;5110438;28;20050;-72
2021/06/01 14:00:21;;;;;;;5.28;3.65;;;25.20;46.60;;;;;;5109445;28;20052;-72
2021/06/01 14:09:29;;;;;;;5.60;3.42;;;25.20;47.20;;;;;;5110405;28;20036;-72
2021/06/01 15:09:40;;;;;;;5.80;3.20;;;24.50;49.70;;;;;;5095358;28;20502;-73
2021/06/01 15:23:42;;;;;;;4.63;3.03;;;24.40;47.50;;;;;;5095678;28;20062;-73
2021/06/01 15:28:41;;;;;;;5.47;3.30;;;24.40;48.40;;;;;;5095354;28;20036;-73
2021/06/01 15:31:32;;;;;;;5.38;3.05;;;24.50;46.80;;;;;;5094893;28;20028;-73
2021/06/01 15:53:32;;;;;;;4.40;3.10;;;24.70;46.70;;;;;;4973597;28;20089;-71
2021/06/01 16:15:16;;;;;;;13.32;5.43;;;24.60;48.90;;;;;;5074101;28;20036;-71
2021/06/01 16:21:24;;;;;;;4.65;3.08;;;24.60;49.30;;;;;;5073945;28;20044;-71
2021/06/01 16:23:42;;;;;;;5.40;3.45;;;24.60;49.30;;;;;;5073674;28;20044;-72
2021/06/01 16:43:29;;;;;;;7.40;3.80;;;24.20;57.50;;;;;;5073894;28;20090;-71
2021/06/01 17:05:10;;;;;;;9.40;4.93;;;23.40;59.40;;;;;;5073340;28;20043;-70
2021/06/01 17:13:13;;;;;;;6.88;4.05;;;23.20;59.60;;;;;;5073273;28;20037;-72
2021/06/01 17:15:40;;;;;;;9.82;4.75;;;23.00;60.10;;;;;;5073255;28;20070;-72
2021/06/01 17:18:33;;;;;;;6.30;4.78;;;22.90;60.50;;;;;;5073712;28;20044;-72
2021/06/01 17:21:42;;;;;;;12.82;5.05;;;23.00;60.20;;;;;;5073215;28;20063;-71
2021/06/01 17:35:04;;;;;;;7.30;4.55;;;22.90;61.50;;;;;;4972609;28;20491;-71
2021/06/01 17:37:30;;;;;;;5.45;3.90;;;22.70;61.90;;;;;;4972706;28;20050;-71
2021/06/01 17:39:56;;;;;;;7.22;4.25;;;22.80;61.90;;;;;;5021133;28;20496;-70
2021/06/01 17:42:27;;;;;;;7.78;4.53;;;22.90;61.10;;;;;;5072816;28;20033;-70
2021/06/01 17:44:57;;;;;;;8.48;4.30;;;22.80;61.40;;;;;;5073127;28;20040;-70
2021/06/01 17:47:25;;;;;;;6.60;4.32;;;22.60;62.30;;;;;;5073097;28;20041;-70
2021/06/01 17:49:52;;;;;;;9.52;5.40;;;22.60;62.20;;;;;;5072505;28;20544;-70
2021/06/01 17:52:29;;;;;;;7.70;4.22;;;22.60;62.10;;;;;;5072943;28;20037;-70
2021/06/01 17:54:57;;;;;;;7.63;5.15;;;22.40;62.80;;;;;;5072641;28;20485;-70
2021/06/01 17:57:25;;;;;;;9.63;5.43;;;22.30;62.90;;;;;;5074547;28;20043;-70
2021/06/01 17:59:51;;;;;;;7.65;4.25;;;22.20;63.10;;;;;;5076276;28;20036;-70
2021/06/01 18:02:18;;;;;;;4.93;4.30;;;22.10;63.60;;;;;;5076879;28;20110;-70
2021/06/01 18:04:46;;;;;;;9.57;4.72;;;22.00;63.60;;;;;;5076454;28;20036;-70
2021/06/01 18:07:21;;;;;;;7.72;5.10;;;22.00;63.80;;;;;;5076874;28;20427;-70
2021/06/01 18:13:11;;;;;;;6.13;4.38;;;21.90;65.00;;;;;;5076254;28;20072;-70
2021/06/01 18:29:29;;;;;;;8.60;4.70;;;21.80;65.60;;;;;;5076127;28;20040;-70
2021/06/01 18:35:44;;;;;;;7.22;4.40;;;20.90;67.50;;;;;;5096491;28;20076;-70
2021/06/01 18:41:10;;;;;;;8.38;4.82;;;20.90;68.00;;;;;;5095567;28;20040;-70
2021/06/01 19:51:37;;;;;;;7.75;5.07;;;19.20;72.40;;;;;;5049774;28;20096;-73
2021/06/01 19:54:19;;;;;;;6.18;4.40;;;19.10;72.00;;;;;;5032903;28;20132;-74
2021/06/01 19:57:38;;;;;;;7.13;4.40;;;19.10;71.60;;;;;;5033536;28;20049;-72